sensor_id;sensor_type;location;lat;lon;timestamp;pressure;altitude;pressure_sealevel;temperature
10058;BMP180;5068;51.286;7.518;2022-09-06T00:00:52;99449.00;;;19.10
10058;BMP180;5068;51.286;7.518;2022-09-06T00:02:30;99456.00;;;19.10
10058;BMP180;5068;51.286;7.518;2022-09-06T00:04:04;99448.00;;;19.10
10058;BMP180;5068;51.286;7.518;2022-09-06T00:05:38;99449.00;;;19.20
10058;BMP180;5068;51.286;7.518;2022-09-06T00:07:10;99447.00;;;19.20
10058;BMP180;5068;51.286;7.518;2022-09-06T00:08:45;99447.00;;;19.20
10058;BMP180;5068;51.286;7.518;2022-09-06T00:10:19;99450.00;;;19.20
10058;BMP180;5068;51.286;7.518;2022-09-06T00:11:52;99442.00;;;19.20
10058;BMP180;5068;51.286;7.518;2022-09-06T00:13:25;99433.00;;;19.20
10058;BMP180;5068;51.286;7.518;2022-09-06T00:15:00;99440.00;;;19.20
10058;BMP180;5068;51.286;7.518;2022-09-06T00:16:34;99435.00;;;19.20
10058;BMP180;5068;51.286;7.518;2022-09-06T00:18:07;99443.00;;;19.20
10058;BMP180;5068;51.286;7.518;2022-09-06T00:19:41;99438.00;;;19.10
10058;BMP180;5068;51.286;7.518;2022-09-06T00:21:18;99431.00;;;19.10
10058;BMP180;5068;51.286;7.518;2022-09-06T00:22:55;99428.00;;;19.10
10058;BMP180;5068;51.286;7.518;2022-09-06T00:24:28;99427.00;;;19.10
10058;BMP180;5068;51.286;7.518;2022-09-06T00:26:03;99428.00;;;19.20
10058;BMP180;5068;51.286;7.518;2022-09-06T00:27:37;99424.00;;;19.20
10058;BMP180;5068;51.286;7.518;2022-09-06T00:29:09;99424.00;;;19.20
10058;BMP180;5068;51.286;7.518;2022-09-06T00:30:44;99425.00;;;19.20
10058;BMP180;5068;51.286;7.518;2022-09-06T00:32:18;99422.00;;;19.20
10058;BMP180;5068;51.286;7.518;2022-09-06T00:33:53;99420.00;;;19.20
10058;BMP180;5068;51.286;7.518;2022-09-06T00:35:27;99420.00;;;19.20
10058;BMP180;5068;51.286;7.518;2022-09-06T00:37:00;99420.00;;;19.20
10058;BMP180;5068;51.286;7.518;2022-09-06T00:38:33;99410.00;;;19.20
10058;BMP180;5068;51.286;7.518;2022-09-06T00:40:08;99413.00;;;19.20
10058;BMP180;5068;51.286;7.518;2022-09-06T00:41:43;99418.00;;;19.20
10058;BMP180;5068;51.286;7.518;2022-09-06T00:43:15;99410.00;;;19.20
10058;BMP180;5068;51.286;7.518;2022-09-06T00:44:49;99410.00;;;19.20
10058;BMP180;5068;51.286;7.518;2022-09-06T00:46:28;99405.00;;;19.20
10058;BMP180;5068;51.286;7.518;2022-09-06T00:48:04;99401.00;;;19.20
10058;BMP180;5068;51.286;7.518;2022-09-06T00:49:43;99408.00;;;19.20
10058;BMP180;5068;51.286;7.518;2022-09-06T00:51:21;99407.00;;;19.20
10058;BMP180;5068;51.286;7.518;2022-09-06T00:52:56;99406.00;;;19.20
10058;BMP180;5068;51.286;7.518;2022-09-06T00:54:30;99403.00;;;19.20
10058;BMP180;5068;51.286;7.518;2022-09-06T00:56:04;99401.00;;;19.20
10058;BMP180;5068;51.286;7.518;2022-09-06T00:57:38;99404.00;;;19.20
10058;BMP180;5068;51.286;7.518;2022-09-06T00:59:13;99395.00;;;19.20
10058;BMP180;5068;51.286;7.518;2022-09-06T01:00:49;99404.00;;;19.20
10058;BMP180;5068;51.286;7.518;2022-09-06T01:02:31;99405.00;;;19.20
10058;BMP180;5068;51.286;7.518;2022-09-06T01:04:13;99400.00;;;19.20
10058;BMP180;5068;51.286;7.518;2022-09-06T01:06:02;99398.00;;;19.20
10058;BMP180;5068;51.286;7.518;2022-09-06T01:07:57;99405.00;;;19.20
10058;BMP180;5068;51.286;7.518;2022-09-06T01:09:50;99404.00;;;19.20
10058;BMP180;5068;51.286;7.518;2022-09-06T01:11:52;99408.00;;;19.20
10058;BMP180;5068;51.286;7.518;2022-09-06T01:13:41;99409.00;;;19.10
10058;BMP180;5068;51.286;7.518;2022-09-06T01:15:31;99413.00;;;19.10
10058;BMP180;5068;51.286;7.518;2022-09-06T01:17:20;99408.00;;;19.10
10058;BMP180;5068;51.286;7.518;2022-09-06T01:21:39;99420.00;;;19.10
10058;BMP180;5068;51.286;7.518;2022-09-06T01:23:45;99434.00;;;19.10
10058;BMP180;5068;51.286;7.518;2022-09-06T01:25:35;99458.00;;;19.00
10058;BMP180;5068;51.286;7.518;2022-09-06T01:29:35;99479.00;;;19.00
10058;BMP180;5068;51.286;7.518;2022-09-06T01:31:22;99486.00;;;19.10
10058;BMP180;5068;51.286;7.518;2022-09-06T01:33:06;99485.00;;;19.10
10058;BMP180;5068;51.286;7.518;2022-09-06T01:34:47;99471.00;;;19.10
10058;BMP180;5068;51.286;7.518;2022-09-06T01:36:25;99469.00;;;19.20
10058;BMP180;5068;51.286;7.518;2022-09-06T01:38:00;99471.00;;;19.20
10058;BMP180;5068;51.286;7.518;2022-09-06T01:39:35;99472.00;;;19.30
10058;BMP180;5068;51.286;7.518;2022-09-06T01:41:09;99473.00;;;19.40
10058;BMP180;5068;51.286;7.518;2022-09-06T01:42:47;99478.00;;;19.40
10058;BMP180;5068;51.286;7.518;2022-09-06T01:44:23;99479.00;;;19.50
10058;BMP180;5068;51.286;7.518;2022-09-06T01:46:06;99473.00;;;19.50
10058;BMP180;5068;51.286;7.518;2022-09-06T01:47:58;99476.00;;;19.50
10058;BMP180;5068;51.286;7.518;2022-09-06T01:49:51;99477.00;;;19.60
10058;BMP180;5068;51.286;7.518;2022-09-06T01:51:37;99475.00;;;19.60
10058;BMP180;5068;51.286;7.518;2022-09-06T01:53:32;99476.00;;;19.60
10058;BMP180;5068;51.286;7.518;2022-09-06T01:55:21;99480.00;;;19.60
10058;BMP180;5068;51.286;7.518;2022-09-06T01:57:13;99482.00;;;19.60
10058;BMP180;5068;51.286;7.518;2022-09-06T01:59:14;99483.00;;;19.60
10058;BMP180;5068;51.286;7.518;2022-09-06T02:00:59;99483.00;;;19.60
10058;BMP180;5068;51.286;7.518;2022-09-06T02:02:48;99478.00;;;19.60
10058;BMP180;5068;51.286;7.518;2022-09-06T02:04:30;99478.00;;;19.60
10058;BMP180;5068;51.286;7.518;2022-09-06T02:06:14;99469.00;;;19.60
10058;BMP180;5068;51.286;7.518;2022-09-06T02:07:55;99468.00;;;19.60
10058;BMP180;5068;51.286;7.518;2022-09-06T02:09:37;99468.00;;;19.60
10058;BMP180;5068;51.286;7.518;2022-09-06T02:11:14;99460.00;;;19.60
10058;BMP180;5068;51.286;7.518;2022-09-06T02:12:53;99464.00;;;19.60
10058;BMP180;5068;51.286;7.518;2022-09-06T02:14:35;99453.00;;;19.60
10058;BMP180;5068;51.286;7.518;2022-09-06T02:16:12;99459.00;;;19.60
10058;BMP180;5068;51.286;7.518;2022-09-06T02:17:55;99457.00;;;19.60
10058;BMP180;5068;51.286;7.518;2022-09-06T02:19:37;99468.00;;;19.60
10058;BMP180;5068;51.286;7.518;2022-09-06T02:21:14;99467.00;;;19.60
10058;BMP180;5068;51.286;7.518;2022-09-06T02:22:50;99462.00;;;19.70
10058;BMP180;5068;51.286;7.518;2022-09-06T02:24:30;99456.00;;;19.70
10058;BMP180;5068;51.286;7.518;2022-09-06T02:26:10;99459.00;;;19.70
10058;BMP180;5068;51.286;7.518;2022-09-06T02:27:45;99462.00;;;19.70
10058;BMP180;5068;51.286;7.518;2022-09-06T02:29:18;99466.00;;;19.70
10058;BMP180;5068;51.286;7.518;2022-09-06T02:30:58;99456.00;;;19.70
10058;BMP180;5068;51.286;7.518;2022-09-06T02:32:38;99459.00;;;19.70
10058;BMP180;5068;51.286;7.518;2022-09-06T02:34:16;99458.00;;;19.70
10058;BMP180;5068;51.286;7.518;2022-09-06T02:35:52;99453.00;;;19.70
10058;BMP180;5068;51.286;7.518;2022-09-06T02:37:27;99454.00;;;19.70
10058;BMP180;5068;51.286;7.518;2022-09-06T02:39:01;99448.00;;;19.70
10058;BMP180;5068;51.286;7.518;2022-09-06T02:40:33;99452.00;;;19.70
10058;BMP180;5068;51.286;7.518;2022-09-06T02:42:10;99457.00;;;19.70
10058;BMP180;5068;51.286;7.518;2022-09-06T02:43:45;99453.00;;;19.70
10058;BMP180;5068;51.286;7.518;2022-09-06T02:45:18;99448.00;;;19.70
10058;BMP180;5068;51.286;7.518;2022-09-06T02:46:53;99442.00;;;19.70
10058;BMP180;5068;51.286;7.518;2022-09-06T02:48:28;99446.00;;;19.70
10058;BMP180;5068;51.286;7.518;2022-09-06T02:50:02;99457.00;;;19.70
10058;BMP180;5068;51.286;7.518;2022-09-06T02:51:37;99455.00;;;19.70
10058;BMP180;5068;51.286;7.518;2022-09-06T02:53:13;99453.00;;;19.70
10058;BMP180;5068;51.286;7.518;2022-09-06T02:54:46;99446.00;;;19.70
10058;BMP180;5068;51.286;7.518;2022-09-06T02:56:20;99444.00;;;19.70
10058;BMP180;5068;51.286;7.518;2022-09-06T02:57:54;99437.00;;;19.70
10058;BMP180;5068;51.286;7.518;2022-09-06T03:01:58;99431.00;;;19.70
10058;BMP180;5068;51.286;7.518;2022-09-06T03:03:32;99428.00;;;19.70
10058;BMP180;5068;51.286;7.518;2022-09-06T03:05:07;99428.00;;;19.80
10058;BMP180;5068;51.286;7.518;2022-09-06T03:06:41;99424.00;;;19.80
10058;BMP180;5068;51.286;7.518;2022-09-06T03:08:15;99426.00;;;19.80
10058;BMP180;5068;51.286;7.518;2022-09-06T03:09:49;99424.00;;;19.80
10058;BMP180;5068;51.286;7.518;2022-09-06T03:11:22;99425.00;;;19.80
10058;BMP180;5068;51.286;7.518;2022-09-06T03:12:56;99433.00;;;19.80
10058;BMP180;5068;51.286;7.518;2022-09-06T03:14:30;99431.00;;;19.80
10058;BMP180;5068;51.286;7.518;2022-09-06T03:16:03;99433.00;;;19.80
10058;BMP180;5068;51.286;7.518;2022-09-06T03:17:38;99422.00;;;19.80
10058;BMP180;5068;51.286;7.518;2022-09-06T03:19:12;99422.00;;;19.80
10058;BMP180;5068;51.286;7.518;2022-09-06T03:20:48;99423.00;;;19.90
10058;BMP180;5068;51.286;7.518;2022-09-06T03:22:22;99436.00;;;19.80
10058;BMP180;5068;51.286;7.518;2022-09-06T03:23:55;99438.00;;;19.90
10058;BMP180;5068;51.286;7.518;2022-09-06T03:25:30;99440.00;;;19.90
10058;BMP180;5068;51.286;7.518;2022-09-06T03:27:03;99428.00;;;19.90
10058;BMP180;5068;51.286;7.518;2022-09-06T03:28:36;99429.00;;;19.90
10058;BMP180;5068;51.286;7.518;2022-09-06T03:30:11;99425.00;;;19.90
10058;BMP180;5068;51.286;7.518;2022-09-06T03:31:44;99430.00;;;19.90
10058;BMP180;5068;51.286;7.518;2022-09-06T03:33:20;99424.00;;;20.00
10058;BMP180;5068;51.286;7.518;2022-09-06T03:34:53;99425.00;;;20.00
10058;BMP180;5068;51.286;7.518;2022-09-06T03:36:27;99437.00;;;20.00
10058;BMP180;5068;51.286;7.518;2022-09-06T03:38:00;99437.00;;;20.00
10058;BMP180;5068;51.286;7.518;2022-09-06T03:39:34;99443.00;;;20.00
10058;BMP180;5068;51.286;7.518;2022-09-06T03:41:07;99445.00;;;20.00
10058;BMP180;5068;51.286;7.518;2022-09-06T03:42:40;99445.00;;;20.00
10058;BMP180;5068;51.286;7.518;2022-09-06T03:44:13;99442.00;;;19.90
10058;BMP180;5068;51.286;7.518;2022-09-06T03:45:49;99456.00;;;20.00
10058;BMP180;5068;51.286;7.518;2022-09-06T03:47:22;99457.00;;;20.00
10058;BMP180;5068;51.286;7.518;2022-09-06T03:48:58;99453.00;;;20.00
10058;BMP180;5068;51.286;7.518;2022-09-06T03:50:33;99461.00;;;20.00
10058;BMP180;5068;51.286;7.518;2022-09-06T03:52:06;99466.00;;;20.00
10058;BMP180;5068;51.286;7.518;2022-09-06T03:53:39;99465.00;;;20.00
10058;BMP180;5068;51.286;7.518;2022-09-06T03:55:12;99459.00;;;19.90
10058;BMP180;5068;51.286;7.518;2022-09-06T03:56:46;99461.00;;;19.90
10058;BMP180;5068;51.286;7.518;2022-09-06T03:58:21;99449.00;;;19.90
10058;BMP180;5068;51.286;7.518;2022-09-06T03:59:56;99457.00;;;19.90
10058;BMP180;5068;51.286;7.518;2022-09-06T04:01:29;99461.00;;;19.90
10058;BMP180;5068;51.286;7.518;2022-09-06T04:03:04;99449.00;;;19.90
10058;BMP180;5068;51.286;7.518;2022-09-06T04:04:38;99448.00;;;19.90
10058;BMP180;5068;51.286;7.518;2022-09-06T04:06:12;99458.00;;;19.90
10058;BMP180;5068;51.286;7.518;2022-09-06T04:07:45;99464.00;;;19.90
10058;BMP180;5068;51.286;7.518;2022-09-06T04:09:18;99459.00;;;20.00
10058;BMP180;5068;51.286;7.518;2022-09-06T04:10:53;99455.00;;;20.00
10058;BMP180;5068;51.286;7.518;2022-09-06T04:12:27;99453.00;;;20.00
10058;BMP180;5068;51.286;7.518;2022-09-06T04:14:01;99457.00;;;20.00
10058;BMP180;5068;51.286;7.518;2022-09-06T04:15:34;99449.00;;;20.00
10058;BMP180;5068;51.286;7.518;2022-09-06T04:17:08;99450.00;;;20.00
10058;BMP180;5068;51.286;7.518;2022-09-06T04:18:41;99449.00;;;20.00
10058;BMP180;5068;51.286;7.518;2022-09-06T04:20:16;99444.00;;;20.00
10058;BMP180;5068;51.286;7.518;2022-09-06T04:21:49;99439.00;;;20.00
10058;BMP180;5068;51.286;7.518;2022-09-06T04:23:25;99431.00;;;20.00
10058;BMP180;5068;51.286;7.518;2022-09-06T04:24:58;99428.00;;;20.00
10058;BMP180;5068;51.286;7.518;2022-09-06T04:26:32;99435.00;;;20.00
10058;BMP180;5068;51.286;7.518;2022-09-06T04:28:06;99425.00;;;20.00
10058;BMP180;5068;51.286;7.518;2022-09-06T04:29:39;99429.00;;;20.00
10058;BMP180;5068;51.286;7.518;2022-09-06T04:31:13;99427.00;;;20.00
10058;BMP180;5068;51.286;7.518;2022-09-06T04:32:47;99427.00;;;20.00
10058;BMP180;5068;51.286;7.518;2022-09-06T04:34:21;99433.00;;;19.90
10058;BMP180;5068;51.286;7.518;2022-09-06T04:35:58;99435.00;;;19.90
10058;BMP180;5068;51.286;7.518;2022-09-06T04:37:32;99426.00;;;19.90
10058;BMP180;5068;51.286;7.518;2022-09-06T04:39:06;99437.00;;;19.90
10058;BMP180;5068;51.286;7.518;2022-09-06T04:40:40;99421.00;;;19.90
10058;BMP180;5068;51.286;7.518;2022-09-06T04:42:14;99433.00;;;19.90
10058;BMP180;5068;51.286;7.518;2022-09-06T04:43:47;99433.00;;;19.90
10058;BMP180;5068;51.286;7.518;2022-09-06T04:45:22;99430.00;;;19.90
10058;BMP180;5068;51.286;7.518;2022-09-06T04:47:05;99428.00;;;20.00
10058;BMP180;5068;51.286;7.518;2022-09-06T04:48:40;99434.00;;;19.90
10058;BMP180;5068;51.286;7.518;2022-09-06T04:50:14;99424.00;;;19.90
10058;BMP180;5068;51.286;7.518;2022-09-06T04:51:53;99419.00;;;20.00
10058;BMP180;5068;51.286;7.518;2022-09-06T04:53:27;99429.00;;;20.00
10058;BMP180;5068;51.286;7.518;2022-09-06T04:55:01;99420.00;;;19.90
10058;BMP180;5068;51.286;7.518;2022-09-06T04:56:34;99414.00;;;20.00
10058;BMP180;5068;51.286;7.518;2022-09-06T04:58:08;99426.00;;;20.00
10058;BMP180;5068;51.286;7.518;2022-09-06T04:59:42;99426.00;;;19.90
10058;BMP180;5068;51.286;7.518;2022-09-06T05:01:16;99432.00;;;19.90
10058;BMP180;5068;51.286;7.518;2022-09-06T05:02:48;99423.00;;;19.90
10058;BMP180;5068;51.286;7.518;2022-09-06T05:04:22;99423.00;;;19.90
10058;BMP180;5068;51.286;7.518;2022-09-06T05:06:05;99422.00;;;19.90
10058;BMP180;5068;51.286;7.518;2022-09-06T05:07:40;99424.00;;;19.80
10058;BMP180;5068;51.286;7.518;2022-09-06T05:09:14;99419.00;;;19.80
10058;BMP180;5068;51.286;7.518;2022-09-06T05:10:50;99430.00;;;19.80
10058;BMP180;5068;51.286;7.518;2022-09-06T05:12:24;99435.00;;;19.80
10058;BMP180;5068;51.286;7.518;2022-09-06T05:13:57;99434.00;;;19.80
10058;BMP180;5068;51.286;7.518;2022-09-06T05:15:31;99439.00;;;19.80
10058;BMP180;5068;51.286;7.518;2022-09-06T05:17:04;99430.00;;;19.80
10058;BMP180;5068;51.286;7.518;2022-09-06T05:18:38;99433.00;;;19.80
10058;BMP180;5068;51.286;7.518;2022-09-06T05:20:12;99433.00;;;19.80
10058;BMP180;5068;51.286;7.518;2022-09-06T05:21:46;99439.00;;;19.80
10058;BMP180;5068;51.286;7.518;2022-09-06T05:23:22;99440.00;;;19.80
10058;BMP180;5068;51.286;7.518;2022-09-06T05:24:55;99428.00;;;19.80
10058;BMP180;5068;51.286;7.518;2022-09-06T05:26:29;99437.00;;;19.80
10058;BMP180;5068;51.286;7.518;2022-09-06T05:28:02;99436.00;;;19.70
10058;BMP180;5068;51.286;7.518;2022-09-06T05:29:36;99440.00;;;19.70
10058;BMP180;5068;51.286;7.518;2022-09-06T05:31:12;99446.00;;;19.70
10058;BMP180;5068;51.286;7.518;2022-09-06T05:32:56;99441.00;;;19.70
10058;BMP180;5068;51.286;7.518;2022-09-06T05:34:29;99441.00;;;19.70
10058;BMP180;5068;51.286;7.518;2022-09-06T05:36:04;99446.00;;;19.60
10058;BMP180;5068;51.286;7.518;2022-09-06T05:37:38;99443.00;;;19.60
10058;BMP180;5068;51.286;7.518;2022-09-06T05:39:14;99451.00;;;19.60
10058;BMP180;5068;51.286;7.518;2022-09-06T05:40:50;99453.00;;;19.60
10058;BMP180;5068;51.286;7.518;2022-09-06T05:42:23;99448.00;;;19.50
10058;BMP180;5068;51.286;7.518;2022-09-06T05:43:57;99449.00;;;19.50
10058;BMP180;5068;51.286;7.518;2022-09-06T05:45:30;99453.00;;;19.50
10058;BMP180;5068;51.286;7.518;2022-09-06T05:47:04;99454.00;;;19.50
10058;BMP180;5068;51.286;7.518;2022-09-06T05:48:39;99446.00;;;19.50
10058;BMP180;5068;51.286;7.518;2022-09-06T05:50:12;99457.00;;;19.50
10058;BMP180;5068;51.286;7.518;2022-09-06T05:51:50;99457.00;;;19.50
10058;BMP180;5068;51.286;7.518;2022-09-06T05:53:23;99454.00;;;19.50
10058;BMP180;5068;51.286;7.518;2022-09-06T05:54:58;99449.00;;;19.50
10058;BMP180;5068;51.286;7.518;2022-09-06T05:56:32;99448.00;;;19.50
10058;BMP180;5068;51.286;7.518;2022-09-06T05:58:05;99454.00;;;19.50
10058;BMP180;5068;51.286;7.518;2022-09-06T05:59:39;99443.00;;;19.50
10058;BMP180;5068;51.286;7.518;2022-09-06T06:01:18;99453.00;;;19.50
10058;BMP180;5068;51.286;7.518;2022-09-06T06:02:53;99445.00;;;19.50
10058;BMP180;5068;51.286;7.518;2022-09-06T06:04:26;99445.00;;;19.60
10058;BMP180;5068;51.286;7.518;2022-09-06T06:06:00;99444.00;;;19.60
10058;BMP180;5068;51.286;7.518;2022-09-06T06:07:33;99445.00;;;19.60
10058;BMP180;5068;51.286;7.518;2022-09-06T06:09:07;99444.00;;;19.60
10058;BMP180;5068;51.286;7.518;2022-09-06T06:10:42;99445.00;;;19.60
10058;BMP180;5068;51.286;7.518;2022-09-06T06:12:15;99440.00;;;19.50
10058;BMP180;5068;51.286;7.518;2022-09-06T06:13:48;99441.00;;;19.50
10058;BMP180;5068;51.286;7.518;2022-09-06T06:15:22;99431.00;;;19.50
10058;BMP180;5068;51.286;7.518;2022-09-06T06:16:56;99442.00;;;19.50
10058;BMP180;5068;51.286;7.518;2022-09-06T06:18:30;99437.00;;;19.50
10058;BMP180;5068;51.286;7.518;2022-09-06T06:20:04;99446.00;;;19.40
10058;BMP180;5068;51.286;7.518;2022-09-06T06:21:38;99437.00;;;19.40
10058;BMP180;5068;51.286;7.518;2022-09-06T06:23:13;99437.00;;;19.40
10058;BMP180;5068;51.286;7.518;2022-09-06T06:24:47;99444.00;;;19.40
10058;BMP180;5068;51.286;7.518;2022-09-06T06:26:22;99441.00;;;19.40
10058;BMP180;5068;51.286;7.518;2022-09-06T06:27:56;99442.00;;;19.40
10058;BMP180;5068;51.286;7.518;2022-09-06T06:29:29;99437.00;;;19.40
10058;BMP180;5068;51.286;7.518;2022-09-06T06:31:03;99436.00;;;19.40
10058;BMP180;5068;51.286;7.518;2022-09-06T06:32:37;99433.00;;;19.40
10058;BMP180;5068;51.286;7.518;2022-09-06T06:34:11;99438.00;;;19.40
10058;BMP180;5068;51.286;7.518;2022-09-06T06:35:57;99434.00;;;19.40
10058;BMP180;5068;51.286;7.518;2022-09-06T06:37:32;99439.00;;;19.50
10058;BMP180;5068;51.286;7.518;2022-09-06T06:39:07;99432.00;;;19.50
10058;BMP180;5068;51.286;7.518;2022-09-06T06:40:44;99436.00;;;19.50
10058;BMP180;5068;51.286;7.518;2022-09-06T06:42:19;99435.00;;;19.50
10058;BMP180;5068;51.286;7.518;2022-09-06T06:43:59;99430.00;;;19.50
10058;BMP180;5068;51.286;7.518;2022-09-06T06:45:33;99433.00;;;19.50
10058;BMP180;5068;51.286;7.518;2022-09-06T06:47:06;99428.00;;;19.60
10058;BMP180;5068;51.286;7.518;2022-09-06T06:48:41;99427.00;;;19.60
10058;BMP180;5068;51.286;7.518;2022-09-06T06:50:14;99430.00;;;19.60
10058;BMP180;5068;51.286;7.518;2022-09-06T06:51:48;99429.00;;;19.60
10058;BMP180;5068;51.286;7.518;2022-09-06T06:53:21;99425.00;;;19.70
10058;BMP180;5068;51.286;7.518;2022-09-06T06:54:55;99426.00;;;19.70
10058;BMP180;5068;51.286;7.518;2022-09-06T06:56:30;99425.00;;;19.70
10058;BMP180;5068;51.286;7.518;2022-09-06T06:58:06;99415.00;;;19.70
10058;BMP180;5068;51.286;7.518;2022-09-06T06:59:39;99413.00;;;19.80
10058;BMP180;5068;51.286;7.518;2022-09-06T07:01:14;99418.00;;;19.80
10058;BMP180;5068;51.286;7.518;2022-09-06T07:02:48;99408.00;;;19.80
10058;BMP180;5068;51.286;7.518;2022-09-06T07:04:21;99409.00;;;19.90
10058;BMP180;5068;51.286;7.518;2022-09-06T07:05:54;99398.00;;;19.90
10058;BMP180;5068;51.286;7.518;2022-09-06T07:07:44;99406.00;;;20.00
10058;BMP180;5068;51.286;7.518;2022-09-06T07:09:18;99397.00;;;20.00
10058;BMP180;5068;51.286;7.518;2022-09-06T07:10:52;99407.00;;;20.00
10058;BMP180;5068;51.286;7.518;2022-09-06T07:12:25;99411.00;;;20.10
10058;BMP180;5068;51.286;7.518;2022-09-06T07:14:01;99413.00;;;20.10
10058;BMP180;5068;51.286;7.518;2022-09-06T07:15:34;99411.00;;;20.10
10058;BMP180;5068;51.286;7.518;2022-09-06T07:17:08;99421.00;;;20.20
10058;BMP180;5068;51.286;7.518;2022-09-06T07:18:42;99409.00;;;20.20
10058;BMP180;5068;51.286;7.518;2022-09-06T07:20:16;99416.00;;;20.30
10058;BMP180;5068;51.286;7.518;2022-09-06T07:21:51;99408.00;;;20.30
10058;BMP180;5068;51.286;7.518;2022-09-06T07:23:25;99409.00;;;20.40
10058;BMP180;5068;51.286;7.518;2022-09-06T07:25:19;99408.00;;;20.40
10058;BMP180;5068;51.286;7.518;2022-09-06T07:26:52;99411.00;;;20.50
10058;BMP180;5068;51.286;7.518;2022-09-06T07:28:46;99393.00;;;20.60
10058;BMP180;5068;51.286;7.518;2022-09-06T07:30:21;99397.00;;;20.60
10058;BMP180;5068;51.286;7.518;2022-09-06T07:31:55;99401.00;;;20.70
10058;BMP180;5068;51.286;7.518;2022-09-06T07:33:44;99393.00;;;20.80
10058;BMP180;5068;51.286;7.518;2022-09-06T07:35:17;99391.00;;;20.80
10058;BMP180;5068;51.286;7.518;2022-09-06T07:36:53;99406.00;;;20.90
10058;BMP180;5068;51.286;7.518;2022-09-06T07:38:28;99402.00;;;21.00
10058;BMP180;5068;51.286;7.518;2022-09-06T07:40:03;99401.00;;;21.10
10058;BMP180;5068;51.286;7.518;2022-09-06T07:41:37;99401.00;;;21.20
10058;BMP180;5068;51.286;7.518;2022-09-06T07:43:10;99390.00;;;21.30
10058;BMP180;5068;51.286;7.518;2022-09-06T07:44:44;99394.00;;;21.40
10058;BMP180;5068;51.286;7.518;2022-09-06T07:46:19;99389.00;;;21.60
10058;BMP180;5068;51.286;7.518;2022-09-06T07:47:56;99396.00;;;21.70
10058;BMP180;5068;51.286;7.518;2022-09-06T07:49:30;99395.00;;;21.80
10058;BMP180;5068;51.286;7.518;2022-09-06T07:51:08;99383.00;;;21.90
10058;BMP180;5068;51.286;7.518;2022-09-06T07:52:42;99382.00;;;22.00
10058;BMP180;5068;51.286;7.518;2022-09-06T07:54:36;99379.00;;;22.20
10058;BMP180;5068;51.286;7.518;2022-09-06T07:56:11;99387.00;;;22.30
10058;BMP180;5068;51.286;7.518;2022-09-06T07:57:45;99385.00;;;22.50
10058;BMP180;5068;51.286;7.518;2022-09-06T07:59:19;99378.00;;;22.60
10058;BMP180;5068;51.286;7.518;2022-09-06T08:00:52;99380.00;;;22.80
10058;BMP180;5068;51.286;7.518;2022-09-06T08:02:27;99384.00;;;22.90
10058;BMP180;5068;51.286;7.518;2022-09-06T08:04:05;99384.00;;;23.00
10058;BMP180;5068;51.286;7.518;2022-09-06T08:05:39;99382.00;;;23.20
10058;BMP180;5068;51.286;7.518;2022-09-06T08:07:33;99379.00;;;23.40
10058;BMP180;5068;51.286;7.518;2022-09-06T08:09:10;99382.00;;;23.50
10058;BMP180;5068;51.286;7.518;2022-09-06T08:10:48;99382.00;;;23.70
10058;BMP180;5068;51.286;7.518;2022-09-06T08:12:22;99381.00;;;23.80
10058;BMP180;5068;51.286;7.518;2022-09-06T08:13:58;99378.00;;;23.90
10058;BMP180;5068;51.286;7.518;2022-09-06T08:15:32;99384.00;;;24.00
10058;BMP180;5068;51.286;7.518;2022-09-06T08:17:05;99390.00;;;24.20
10058;BMP180;5068;51.286;7.518;2022-09-06T08:18:40;99395.00;;;24.30
10058;BMP180;5068;51.286;7.518;2022-09-06T08:20:14;99383.00;;;24.50
10058;BMP180;5068;51.286;7.518;2022-09-06T08:21:47;99394.00;;;24.60
10058;BMP180;5068;51.286;7.518;2022-09-06T08:23:21;99390.00;;;24.80
10058;BMP180;5068;51.286;7.518;2022-09-06T08:24:55;99392.00;;;25.00
10058;BMP180;5068;51.286;7.518;2022-09-06T08:26:31;99383.00;;;25.20
10058;BMP180;5068;51.286;7.518;2022-09-06T08:28:05;99383.00;;;25.30
10058;BMP180;5068;51.286;7.518;2022-09-06T08:29:38;99384.00;;;25.50
10058;BMP180;5068;51.286;7.518;2022-09-06T08:31:15;99376.00;;;25.70
10058;BMP180;5068;51.286;7.518;2022-09-06T08:32:49;99390.00;;;25.90
10058;BMP180;5068;51.286;7.518;2022-09-06T08:34:24;99391.00;;;26.00
10058;BMP180;5068;51.286;7.518;2022-09-06T08:35:59;99391.00;;;26.20
10058;BMP180;5068;51.286;7.518;2022-09-06T08:37:31;99389.00;;;26.40
10058;BMP180;5068;51.286;7.518;2022-09-06T08:39:07;99390.00;;;26.50
10058;BMP180;5068;51.286;7.518;2022-09-06T08:40:41;99394.00;;;26.60
10058;BMP180;5068;51.286;7.518;2022-09-06T08:42:14;99399.00;;;26.80
10058;BMP180;5068;51.286;7.518;2022-09-06T08:43:53;99391.00;;;26.90
10058;BMP180;5068;51.286;7.518;2022-09-06T08:45:55;99392.00;;;27.10
10058;BMP180;5068;51.286;7.518;2022-09-06T08:47:29;99389.00;;;27.20
10058;BMP180;5068;51.286;7.518;2022-09-06T08:49:03;99387.00;;;27.30
10058;BMP180;5068;51.286;7.518;2022-09-06T08:50:46;99404.00;;;27.40
10058;BMP180;5068;51.286;7.518;2022-09-06T08:52:48;99399.00;;;27.60
10058;BMP180;5068;51.286;7.518;2022-09-06T08:54:52;99392.00;;;27.70
10058;BMP180;5068;51.286;7.518;2022-09-06T08:56:34;99396.00;;;27.80
10058;BMP180;5068;51.286;7.518;2022-09-06T08:58:35;99397.00;;;28.00
10058;BMP180;5068;51.286;7.518;2022-09-06T09:00:13;99394.00;;;28.10
10058;BMP180;5068;51.286;7.518;2022-09-06T09:01:58;99388.00;;;28.20
10058;BMP180;5068;51.286;7.518;2022-09-06T09:03:36;99387.00;;;28.30
10058;BMP180;5068;51.286;7.518;2022-09-06T09:05:22;99387.00;;;28.40
10058;BMP180;5068;51.286;7.518;2022-09-06T09:07:06;99392.00;;;28.50
10058;BMP180;5068;51.286;7.518;2022-09-06T09:08:52;99397.00;;;28.60
10058;BMP180;5068;51.286;7.518;2022-09-06T09:10:39;99398.00;;;28.70
10058;BMP180;5068;51.286;7.518;2022-09-06T09:12:16;99385.00;;;28.80
10058;BMP180;5068;51.286;7.518;2022-09-06T09:13:57;99381.00;;;28.90
10058;BMP180;5068;51.286;7.518;2022-09-06T09:15:35;99382.00;;;28.90
10058;BMP180;5068;51.286;7.518;2022-09-06T09:17:16;99385.00;;;29.00
10058;BMP180;5068;51.286;7.518;2022-09-06T09:18:57;99376.00;;;29.10
10058;BMP180;5068;51.286;7.518;2022-09-06T09:20:31;99389.00;;;29.20
10058;BMP180;5068;51.286;7.518;2022-09-06T09:22:06;99381.00;;;29.30
10058;BMP180;5068;51.286;7.518;2022-09-06T09:23:39;99375.00;;;29.30
10058;BMP180;5068;51.286;7.518;2022-09-06T09:25:20;99379.00;;;29.40
10058;BMP180;5068;51.286;7.518;2022-09-06T09:27:02;99379.00;;;29.50
10058;BMP180;5068;51.286;7.518;2022-09-06T09:28:38;99370.00;;;29.50
10058;BMP180;5068;51.286;7.518;2022-09-06T09:30:12;99366.00;;;29.60
10058;BMP180;5068;51.286;7.518;2022-09-06T09:32:06;99367.00;;;29.60
10058;BMP180;5068;51.286;7.518;2022-09-06T09:33:40;99371.00;;;29.70